sensor_id;sensor_type;location;lat;lon;timestamp;temperature;humidity
4910;DHT22;2470;49.868;8.660;2023-12-07T00:00:29;4.70;99.90
4910;DHT22;2470;49.868;8.660;2023-12-07T00:02:55;4.70;99.90
4910;DHT22;2470;49.868;8.660;2023-12-07T00:05:20;4.70;99.90
4910;DHT22;2470;49.868;8.660;2023-12-07T00:07:46;4.70;99.90
4910;DHT22;2470;49.868;8.660;2023-12-07T00:10:11;4.70;99.90
4910;DHT22;2470;49.868;8.660;2023-12-07T00:12:37;4.80;99.90
4910;DHT22;2470;49.868;8.660;2023-12-07T00:15:02;4.80;99.90
4910;DHT22;2470;49.868;8.660;2023-12-07T00:17:28;4.80;99.90
4910;DHT22;2470;49.868;8.660;2023-12-07T00:19:54;4.80;99.90
4910;DHT22;2470;49.868;8.660;2023-12-07T00:22:21;4.70;99.90
4910;DHT22;2470;49.868;8.660;2023-12-07T00:24:46;4.70;99.90
4910;DHT22;2470;49.868;8.660;2023-12-07T00:27:12;4.60;99.90
4910;DHT22;2470;49.868;8.660;2023-12-07T00:29:38;4.60;99.90
4910;DHT22;2470;49.868;8.660;2023-12-07T00:32:04;4.60;99.90
4910;DHT22;2470;49.868;8.660;2023-12-07T00:34:30;4.60;99.90
4910;DHT22;2470;49.868;8.660;2023-12-07T00:36:56;4.50;99.90
4910;DHT22;2470;49.868;8.660;2023-12-07T00:39:21;4.50;99.90
4910;DHT22;2470;49.868;8.660;2023-12-07T00:41:47;4.50;99.90
4910;DHT22;2470;49.868;8.660;2023-12-07T00:44:16;4.40;99.90
4910;DHT22;2470;49.868;8.660;2023-12-07T00:46:41;4.40;99.90
4910;DHT22;2470;49.868;8.660;2023-12-07T00:49:07;4.40;99.90
4910;DHT22;2470;49.868;8.660;2023-12-07T00:51:32;4.40;99.90
4910;DHT22;2470;49.868;8.660;2023-12-07T00:53:58;4.30;99.90
4910;DHT22;2470;49.868;8.660;2023-12-07T00:56:24;4.30;99.90
4910;DHT22;2470;49.868;8.660;2023-12-07T00:58:49;4.30;99.90
4910;DHT22;2470;49.868;8.660;2023-12-07T01:01:15;4.30;99.90
4910;DHT22;2470;49.868;8.660;2023-12-07T01:03:40;4.30;99.90
4910;DHT22;2470;49.868;8.660;2023-12-07T01:06:07;4.30;99.90
4910;DHT22;2470;49.868;8.660;2023-12-07T01:08:32;4.30;99.90
4910;DHT22;2470;49.868;8.660;2023-12-07T01:10:58;4.30;99.90
4910;DHT22;2470;49.868;8.660;2023-12-07T01:13:24;4.30;99.90
4910;DHT22;2470;49.868;8.660;2023-12-07T01:15:50;4.30;99.90
4910;DHT22;2470;49.868;8.660;2023-12-07T01:18:15;4.30;99.90
4910;DHT22;2470;49.868;8.660;2023-12-07T01:20:41;4.30;99.90
4910;DHT22;2470;49.868;8.660;2023-12-07T01:23:07;4.30;99.90
4910;DHT22;2470;49.868;8.660;2023-12-07T01:25:34;4.20;99.90
4910;DHT22;2470;49.868;8.660;2023-12-07T01:27:59;4.20;99.90
4910;DHT22;2470;49.868;8.660;2023-12-07T01:30:25;4.20;99.90
4910;DHT22;2470;49.868;8.660;2023-12-07T01:32:50;4.20;99.90
4910;DHT22;2470;49.868;8.660;2023-12-07T01:35:16;4.20;99.90
4910;DHT22;2470;49.868;8.660;2023-12-07T01:37:41;4.20;99.90
4910;DHT22;2470;49.868;8.660;2023-12-07T01:40:07;4.20;99.90
4910;DHT22;2470;49.868;8.660;2023-12-07T01:42:38;4.20;99.90
4910;DHT22;2470;49.868;8.660;2023-12-07T01:45:07;4.20;99.90
4910;DHT22;2470;49.868;8.660;2023-12-07T01:47:35;4.20;99.90
4910;DHT22;2470;49.868;8.660;2023-12-07T01:50:02;4.20;99.90
4910;DHT22;2470;49.868;8.660;2023-12-07T01:52:29;4.20;99.90
4910;DHT22;2470;49.868;8.660;2023-12-07T01:54:56;4.20;99.90
4910;DHT22;2470;49.868;8.660;2023-12-07T01:57:22;4.20;99.90
4910;DHT22;2470;49.868;8.660;2023-12-07T01:59:48;4.10;99.90
4910;DHT22;2470;49.868;8.660;2023-12-07T02:02:14;4.10;99.90
4910;DHT22;2470;49.868;8.660;2023-12-07T02:04:39;4.10;99.90
4910;DHT22;2470;49.868;8.660;2023-12-07T02:07:06;4.00;99.90
4910;DHT22;2470;49.868;8.660;2023-12-07T02:09:32;4.10;99.90
4910;DHT22;2470;49.868;8.660;2023-12-07T02:11:57;4.10;99.90
4910;DHT22;2470;49.868;8.660;2023-12-07T02:14:23;4.10;99.90
4910;DHT22;2470;49.868;8.660;2023-12-07T02:16:55;4.10;99.90
4910;DHT22;2470;49.868;8.660;2023-12-07T02:19:46;4.10;99.90
4910;DHT22;2470;49.868;8.660;2023-12-07T02:22:18;4.20;99.90
4910;DHT22;2470;49.868;8.660;2023-12-07T02:25:04;4.20;99.90
4910;DHT22;2470;49.868;8.660;2023-12-07T02:27:39;4.20;99.90
4910;DHT22;2470;49.868;8.660;2023-12-07T02:30:07;4.20;99.90
4910;DHT22;2470;49.868;8.660;2023-12-07T02:32:32;4.10;99.90
4910;DHT22;2470;49.868;8.660;2023-12-07T02:34:58;4.10;99.90
4910;DHT22;2470;49.868;8.660;2023-12-07T02:37:27;4.10;99.90
4910;DHT22;2470;49.868;8.660;2023-12-07T02:39:55;4.00;99.90
4910;DHT22;2470;49.868;8.660;2023-12-07T02:42:24;4.00;99.90
4910;DHT22;2470;49.868;8.660;2023-12-07T02:44:52;4.00;99.90
4910;DHT22;2470;49.868;8.660;2023-12-07T02:47:18;4.00;99.90
4910;DHT22;2470;49.868;8.660;2023-12-07T02:49:44;3.90;99.90
4910;DHT22;2470;49.868;8.660;2023-12-07T02:52:10;3.90;99.90
4910;DHT22;2470;49.868;8.660;2023-12-07T02:54:35;3.90;99.90
4910;DHT22;2470;49.868;8.660;2023-12-07T02:57:01;3.90;99.90
4910;DHT22;2470;49.868;8.660;2023-12-07T02:59:26;3.90;99.90
4910;DHT22;2470;49.868;8.660;2023-12-07T03:01:52;3.90;99.90
4910;DHT22;2470;49.868;8.660;2023-12-07T03:04:17;3.90;99.90
4910;DHT22;2470;49.868;8.660;2023-12-07T03:06:43;3.90;99.90
4910;DHT22;2470;49.868;8.660;2023-12-07T03:09:08;3.90;99.90
4910;DHT22;2470;49.868;8.660;2023-12-07T03:11:34;3.90;99.90
4910;DHT22;2470;49.868;8.660;2023-12-07T03:13:59;3.90;99.90
4910;DHT22;2470;49.868;8.660;2023-12-07T03:16:25;3.90;99.90
4910;DHT22;2470;49.868;8.660;2023-12-07T03:18:50;3.90;99.90
4910;DHT22;2470;49.868;8.660;2023-12-07T03:21:16;3.90;99.90
4910;DHT22;2470;49.868;8.660;2023-12-07T03:23:41;3.80;99.90
4910;DHT22;2470;49.868;8.660;2023-12-07T03:26:07;3.80;99.90
4910;DHT22;2470;49.868;8.660;2023-12-07T03:28:32;3.80;99.90
4910;DHT22;2470;49.868;8.660;2023-12-07T03:30:58;3.70;99.90
4910;DHT22;2470;49.868;8.660;2023-12-07T03:33:23;3.70;99.90
4910;DHT22;2470;49.868;8.660;2023-12-07T03:35:49;3.60;99.90
4910;DHT22;2470;49.868;8.660;2023-12-07T03:38:15;3.60;99.90
4910;DHT22;2470;49.868;8.660;2023-12-07T03:40:40;3.60;99.90
4910;DHT22;2470;49.868;8.660;2023-12-07T03:43:06;3.50;99.90
4910;DHT22;2470;49.868;8.660;2023-12-07T03:45:31;3.50;99.90
4910;DHT22;2470;49.868;8.660;2023-12-07T03:47:57;3.40;99.90
4910;DHT22;2470;49.868;8.660;2023-12-07T03:50:22;3.50;99.90
4910;DHT22;2470;49.868;8.660;2023-12-07T03:52:48;3.40;99.90
4910;DHT22;2470;49.868;8.660;2023-12-07T03:55:13;3.30;99.90
4910;DHT22;2470;49.868;8.660;2023-12-07T03:57:39;3.30;99.90
4910;DHT22;2470;49.868;8.660;2023-12-07T04:00:05;3.40;99.90
4910;DHT22;2470;49.868;8.660;2023-12-07T04:02:34;3.30;99.90
4910;DHT22;2470;49.868;8.660;2023-12-07T04:05:00;3.40;99.90
4910;DHT22;2470;49.868;8.660;2023-12-07T04:07:28;3.40;99.90
4910;DHT22;2470;49.868;8.660;2023-12-07T04:09:54;3.30;99.90
4910;DHT22;2470;49.868;8.660;2023-12-07T04:12:19;3.30;99.90
4910;DHT22;2470;49.868;8.660;2023-12-07T04:14:45;3.30;99.90
4910;DHT22;2470;49.868;8.660;2023-12-07T04:17:10;3.30;99.90
4910;DHT22;2470;49.868;8.660;2023-12-07T04:19:36;3.30;99.90
4910;DHT22;2470;49.868;8.660;2023-12-07T04:22:02;3.20;99.90
4910;DHT22;2470;49.868;8.660;2023-12-07T04:24:27;3.20;99.90
4910;DHT22;2470;49.868;8.660;2023-12-07T04:26:53;3.30;99.90
4910;DHT22;2470;49.868;8.660;2023-12-07T04:29:18;3.30;99.90
4910;DHT22;2470;49.868;8.660;2023-12-07T04:31:44;3.20;99.90
4910;DHT22;2470;49.868;8.660;2023-12-07T04:34:09;3.30;99.90
4910;DHT22;2470;49.868;8.660;2023-12-07T04:36:35;3.30;99.90
4910;DHT22;2470;49.868;8.660;2023-12-07T04:39:00;3.20;99.90
4910;DHT22;2470;49.868;8.660;2023-12-07T04:41:26;3.10;99.90
4910;DHT22;2470;49.868;8.660;2023-12-07T04:43:51;3.20;99.90
4910;DHT22;2470;49.868;8.660;2023-12-07T04:46:17;3.20;99.90
4910;DHT22;2470;49.868;8.660;2023-12-07T04:48:42;3.20;99.90
4910;DHT22;2470;49.868;8.660;2023-12-07T04:51:08;3.10;99.90
4910;DHT22;2470;49.868;8.660;2023-12-07T04:53:33;3.10;99.90
4910;DHT22;2470;49.868;8.660;2023-12-07T04:55:59;3.10;99.90
4910;DHT22;2470;49.868;8.660;2023-12-07T04:58:24;3.10;99.90
4910;DHT22;2470;49.868;8.660;2023-12-07T05:00:50;3.10;99.90
4910;DHT22;2470;49.868;8.660;2023-12-07T05:03:15;3.10;99.90
4910;DHT22;2470;49.868;8.660;2023-12-07T05:05:41;3.00;99.90
4910;DHT22;2470;49.868;8.660;2023-12-07T05:08:07;3.00;99.90
4910;DHT22;2470;49.868;8.660;2023-12-07T05:10:32;3.00;99.90
4910;DHT22;2470;49.868;8.660;2023-12-07T05:12:58;3.00;99.90
4910;DHT22;2470;49.868;8.660;2023-12-07T05:15:23;3.00;99.90
4910;DHT22;2470;49.868;8.660;2023-12-07T05:17:50;3.00;99.90
4910;DHT22;2470;49.868;8.660;2023-12-07T05:20:15;2.90;99.90
4910;DHT22;2470;49.868;8.660;2023-12-07T05:22:41;2.90;99.90
4910;DHT22;2470;49.868;8.660;2023-12-07T05:25:06;2.90;99.90
4910;DHT22;2470;49.868;8.660;2023-12-07T05:27:32;2.90;99.90
4910;DHT22;2470;49.868;8.660;2023-12-07T05:29:57;2.90;99.90
4910;DHT22;2470;49.868;8.660;2023-12-07T05:32:23;3.00;99.90
4910;DHT22;2470;49.868;8.660;2023-12-07T05:34:48;3.00;99.90
4910;DHT22;2470;49.868;8.660;2023-12-07T05:37:15;3.00;99.90
4910;DHT22;2470;49.868;8.660;2023-12-07T05:39:43;3.00;99.90
4910;DHT22;2470;49.868;8.660;2023-12-07T05:42:09;3.00;99.90
4910;DHT22;2470;49.868;8.660;2023-12-07T05:44:34;3.00;99.90
4910;DHT22;2470;49.868;8.660;2023-12-07T05:47:00;3.00;99.90
4910;DHT22;2470;49.868;8.660;2023-12-07T05:49:26;2.90;99.90
4910;DHT22;2470;49.868;8.660;2023-12-07T05:51:51;3.00;99.90
4910;DHT22;2470;49.868;8.660;2023-12-07T05:54:18;2.90;99.90
4910;DHT22;2470;49.868;8.660;2023-12-07T05:56:45;2.90;99.90
4910;DHT22;2470;49.868;8.660;2023-12-07T05:59:12;2.90;99.90
4910;DHT22;2470;49.868;8.660;2023-12-07T06:01:37;3.00;99.90
4910;DHT22;2470;49.868;8.660;2023-12-07T06:04:03;3.00;99.90
4910;DHT22;2470;49.868;8.660;2023-12-07T06:06:28;3.00;99.90
4910;DHT22;2470;49.868;8.660;2023-12-07T06:08:54;3.10;99.90
4910;DHT22;2470;49.868;8.660;2023-12-07T06:11:19;3.00;99.90
4910;DHT22;2470;49.868;8.660;2023-12-07T06:13:45;3.10;99.90
4910;DHT22;2470;49.868;8.660;2023-12-07T06:16:13;3.10;99.90
4910;DHT22;2470;49.868;8.660;2023-12-07T06:18:40;3.10;99.90
4910;DHT22;2470;49.868;8.660;2023-12-07T06:21:05;3.10;99.90
4910;DHT22;2470;49.868;8.660;2023-12-07T06:23:31;3.10;99.90
4910;DHT22;2470;49.868;8.660;2023-12-07T06:25:57;3.10;99.90
4910;DHT22;2470;49.868;8.660;2023-12-07T06:28:22;3.20;99.90
4910;DHT22;2470;49.868;8.660;2023-12-07T06:30:48;3.20;99.90
4910;DHT22;2470;49.868;8.660;2023-12-07T06:33:13;3.20;99.90
4910;DHT22;2470;49.868;8.660;2023-12-07T06:35:39;3.20;99.90
4910;DHT22;2470;49.868;8.660;2023-12-07T06:38:04;3.30;99.90
4910;DHT22;2470;49.868;8.660;2023-12-07T06:40:30;3.30;99.90
4910;DHT22;2470;49.868;8.660;2023-12-07T06:42:57;3.30;99.90
4910;DHT22;2470;49.868;8.660;2023-12-07T06:45:22;3.30;99.90
4910;DHT22;2470;49.868;8.660;2023-12-07T06:47:48;3.30;99.90
4910;DHT22;2470;49.868;8.660;2023-12-07T06:50:13;3.40;99.90
4910;DHT22;2470;49.868;8.660;2023-12-07T06:52:39;3.40;99.90
4910;DHT22;2470;49.868;8.660;2023-12-07T06:55:05;3.40;99.90
4910;DHT22;2470;49.868;8.660;2023-12-07T06:57:31;3.50;99.90
4910;DHT22;2470;49.868;8.660;2023-12-07T06:59:57;3.50;99.90
4910;DHT22;2470;49.868;8.660;2023-12-07T07:02:22;3.50;99.90
4910;DHT22;2470;49.868;8.660;2023-12-07T07:04:48;3.50;99.90
4910;DHT22;2470;49.868;8.660;2023-12-07T07:07:15;3.50;99.90
4910;DHT22;2470;49.868;8.660;2023-12-07T07:09:40;3.60;99.90
4910;DHT22;2470;49.868;8.660;2023-12-07T07:12:06;3.60;99.90
4910;DHT22;2470;49.868;8.660;2023-12-07T07:14:32;3.60;99.90
4910;DHT22;2470;49.868;8.660;2023-12-07T07:16:58;3.50;99.90
4910;DHT22;2470;49.868;8.660;2023-12-07T07:19:23;3.50;99.90
4910;DHT22;2470;49.868;8.660;2023-12-07T07:21:49;3.50;99.90
4910;DHT22;2470;49.868;8.660;2023-12-07T07:24:14;3.40;99.90
4910;DHT22;2470;49.868;8.660;2023-12-07T07:26:40;3.40;99.90
4910;DHT22;2470;49.868;8.660;2023-12-07T07:29:05;3.50;99.90
4910;DHT22;2470;49.868;8.660;2023-12-07T07:31:31;3.50;99.90
4910;DHT22;2470;49.868;8.660;2023-12-07T07:33:57;3.50;99.90
4910;DHT22;2470;49.868;8.660;2023-12-07T07:36:22;3.50;99.90
4910;DHT22;2470;49.868;8.660;2023-12-07T07:38:48;3.50;99.90
4910;DHT22;2470;49.868;8.660;2023-12-07T07:41:14;3.40;99.90
4910;DHT22;2470;49.868;8.660;2023-12-07T07:43:39;3.40;99.90
4910;DHT22;2470;49.868;8.660;2023-12-07T07:46:05;3.40;99.90
4910;DHT22;2470;49.868;8.660;2023-12-07T07:48:31;3.40;99.90
4910;DHT22;2470;49.868;8.660;2023-12-07T07:50:57;3.50;99.90
4910;DHT22;2470;49.868;8.660;2023-12-07T07:53:23;3.50;99.90
4910;DHT22;2470;49.868;8.660;2023-12-07T07:55:49;3.60;99.90
4910;DHT22;2470;49.868;8.660;2023-12-07T07:58:14;3.70;99.90
4910;DHT22;2470;49.868;8.660;2023-12-07T08:00:40;3.80;99.90
4910;DHT22;2470;49.868;8.660;2023-12-07T08:03:05;3.90;99.90
4910;DHT22;2470;49.868;8.660;2023-12-07T08:05:32;3.90;99.90
4910;DHT22;2470;49.868;8.660;2023-12-07T08:08:04;3.90;99.90
4910;DHT22;2470;49.868;8.660;2023-12-07T08:10:29;3.90;99.90
4910;DHT22;2470;49.868;8.660;2023-12-07T08:12:55;3.90;99.90
4910;DHT22;2470;49.868;8.660;2023-12-07T08:15:20;3.90;99.90
4910;DHT22;2470;49.868;8.660;2023-12-07T08:17:47;4.00;99.90
4910;DHT22;2470;49.868;8.660;2023-12-07T08:20:13;4.00;99.90
4910;DHT22;2470;49.868;8.660;2023-12-07T08:22:40;4.00;99.90
4910;DHT22;2470;49.868;8.660;2023-12-07T08:25:10;4.00;99.90
4910;DHT22;2470;49.868;8.660;2023-12-07T08:27:39;4.00;99.90
4910;DHT22;2470;49.868;8.660;2023-12-07T08:30:06;4.00;99.90
4910;DHT22;2470;49.868;8.660;2023-12-07T08:32:31;4.00;99.90
4910;DHT22;2470;49.868;8.660;2023-12-07T08:34:57;4.00;99.90
4910;DHT22;2470;49.868;8.660;2023-12-07T08:37:22;4.00;99.90
4910;DHT22;2470;49.868;8.660;2023-12-07T08:39:48;4.00;99.90
4910;DHT22;2470;49.868;8.660;2023-12-07T08:42:14;4.10;99.90
4910;DHT22;2470;49.868;8.660;2023-12-07T08:44:39;4.10;99.90
4910;DHT22;2470;49.868;8.660;2023-12-07T08:47:05;4.10;99.90
4910;DHT22;2470;49.868;8.660;2023-12-07T08:49:30;4.20;99.90
4910;DHT22;2470;49.868;8.660;2023-12-07T08:51:57;4.20;99.90
4910;DHT22;2470;49.868;8.660;2023-12-07T08:54:22;4.30;99.90
4910;DHT22;2470;49.868;8.660;2023-12-07T08:56:48;4.40;99.90
4910;DHT22;2470;49.868;8.660;2023-12-07T08:59:13;4.50;99.90
4910;DHT22;2470;49.868;8.660;2023-12-07T09:01:39;4.60;99.90
4910;DHT22;2470;49.868;8.660;2023-12-07T09:04:04;4.60;99.90
4910;DHT22;2470;49.868;8.660;2023-12-07T09:06:30;4.60;99.90
4910;DHT22;2470;49.868;8.660;2023-12-07T09:08:56;4.60;99.90
4910;DHT22;2470;49.868;8.660;2023-12-07T09:11:21;4.60;99.90
4910;DHT22;2470;49.868;8.660;2023-12-07T09:13:47;4.70;99.90
4910;DHT22;2470;49.868;8.660;2023-12-07T09:16:12;4.60;99.90
4910;DHT22;2470;49.868;8.660;2023-12-07T09:18:38;4.60;99.90
4910;DHT22;2470;49.868;8.660;2023-12-07T09:21:04;4.50;99.90
4910;DHT22;2470;49.868;8.660;2023-12-07T09:23:31;4.60;99.90
4910;DHT22;2470;49.868;8.660;2023-12-07T09:25:56;4.60;99.90
4910;DHT22;2470;49.868;8.660;2023-12-07T09:28:22;4.60;99.90
4910;DHT22;2470;49.868;8.660;2023-12-07T09:30:47;4.70;99.90
4910;DHT22;2470;49.868;8.660;2023-12-07T09:33:13;4.70;99.90
4910;DHT22;2470;49.868;8.660;2023-12-07T09:35:39;4.80;99.90
4910;DHT22;2470;49.868;8.660;2023-12-07T09:38:04;4.80;99.90
4910;DHT22;2470;49.868;8.660;2023-12-07T09:40:30;4.90;99.90
4910;DHT22;2470;49.868;8.660;2023-12-07T09:42:56;4.90;99.90
4910;DHT22;2470;49.868;8.660;2023-12-07T09:45:21;5.10;99.90
4910;DHT22;2470;49.868;8.660;2023-12-07T09:47:49;5.10;99.90
4910;DHT22;2470;49.868;8.660;2023-12-07T09:50:16;5.10;99.90
4910;DHT22;2470;49.868;8.660;2023-12-07T09:52:43;5.20;99.90
4910;DHT22;2470;49.868;8.660;2023-12-07T09:55:09;5.20;99.90
4910;DHT22;2470;49.868;8.660;2023-12-07T09:57:37;5.10;99.90
4910;DHT22;2470;49.868;8.660;2023-12-07T10:00:03;5.20;99.90
4910;DHT22;2470;49.868;8.660;2023-12-07T10:02:30;5.20;99.90
4910;DHT22;2470;49.868;8.660;2023-12-07T10:05:05;5.10;99.90
4910;DHT22;2470;49.868;8.660;2023-12-07T10:07:33;5.00;99.90
4910;DHT22;2470;49.868;8.660;2023-12-07T10:10:00;4.90;99.90
4910;DHT22;2470;49.868;8.660;2023-12-07T10:12:25;4.90;99.90
4910;DHT22;2470;49.868;8.660;2023-12-07T10:14:51;4.80;99.90
4910;DHT22;2470;49.868;8.660;2023-12-07T10:17:16;4.70;99.90
4910;DHT22;2470;49.868;8.660;2023-12-07T10:19:42;4.60;99.90
4910;DHT22;2470;49.868;8.660;2023-12-07T10:22:13;4.60;99.90
4910;DHT22;2470;49.868;8.660;2023-12-07T10:24:41;4.50;99.90
4910;DHT22;2470;49.868;8.660;2023-12-07T10:27:08;4.60;99.90
4910;DHT22;2470;49.868;8.660;2023-12-07T10:29:38;4.70;99.90
4910;DHT22;2470;49.868;8.660;2023-12-07T10:32:04;4.80;99.90
4910;DHT22;2470;49.868;8.660;2023-12-07T10:34:30;4.80;99.90
4910;DHT22;2470;49.868;8.660;2023-12-07T10:36:57;4.90;99.90
4910;DHT22;2470;49.868;8.660;2023-12-07T10:39:24;4.90;99.90
4910;DHT22;2470;49.868;8.660;2023-12-07T10:41:52;4.90;99.90
4910;DHT22;2470;49.868;8.660;2023-12-07T10:44:22;4.80;99.90
4910;DHT22;2470;49.868;8.660;2023-12-07T10:46:52;4.80;99.90
4910;DHT22;2470;49.868;8.660;2023-12-07T10:49:21;4.90;99.90
4910;DHT22;2470;49.868;8.660;2023-12-07T10:51:58;4.90;99.90
4910;DHT22;2470;49.868;8.660;2023-12-07T10:54:40;4.90;99.90
4910;DHT22;2470;49.868;8.660;2023-12-07T10:57:07;4.80;99.90
4910;DHT22;2470;49.868;8.660;2023-12-07T10:59:35;4.60;99.90
4910;DHT22;2470;49.868;8.660;2023-12-07T11:02:02;4.50;99.90
4910;DHT22;2470;49.868;8.660;2023-12-07T11:04:29;4.40;99.90
4910;DHT22;2470;49.868;8.660;2023-12-07T11:06:57;4.40;99.90
4910;DHT22;2470;49.868;8.660;2023-12-07T11:09:29;4.30;99.90
4910;DHT22;2470;49.868;8.660;2023-12-07T11:12:35;4.20;99.90
4910;DHT22;2470;49.868;8.660;2023-12-07T11:15:02;4.20;99.90
4910;DHT22;2470;49.868;8.660;2023-12-07T11:17:28;4.10;99.90
4910;DHT22;2470;49.868;8.660;2023-12-07T11:19:54;4.20;99.90
4910;DHT22;2470;49.868;8.660;2023-12-07T11:22:20;4.30;99.90
4910;DHT22;2470;49.868;8.660;2023-12-07T11:24:57;4.40;99.90
4910;DHT22;2470;49.868;8.660;2023-12-07T11:27:29;4.30;99.90
4910;DHT22;2470;49.868;8.660;2023-12-07T11:29:58;4.30;99.90
4910;DHT22;2470;49.868;8.660;2023-12-07T11:32:26;4.20;99.90
4910;DHT22;2470;49.868;8.660;2023-12-07T11:34:52;4.20;99.90
4910;DHT22;2470;49.868;8.660;2023-12-07T11:37:18;4.30;99.90
4910;DHT22;2470;49.868;8.660;2023-12-07T11:39:44;4.30;99.90
4910;DHT22;2470;49.868;8.660;2023-12-07T11:42:19;4.20;99.90
4910;DHT22;2470;49.868;8.660;2023-12-07T11:44:49;4.20;99.90
4910;DHT22;2470;49.868;8.660;2023-12-07T11:47:19;4.20;99.90
4910;DHT22;2470;49.868;8.660;2023-12-07T11:49:46;4.30;99.90
4910;DHT22;2470;49.868;8.660;2023-12-07T11:52:13;4.40;99.90
4910;DHT22;2470;49.868;8.660;2023-12-07T11:54:40;4.30;99.90
4910;DHT22;2470;49.868;8.660;2023-12-07T11:57:05;4.30;99.90
4910;DHT22;2470;49.868;8.660;2023-12-07T11:59:31;4.40;99.90
4910;DHT22;2470;49.868;8.660;2023-12-07T12:01:59;4.40;99.90
4910;DHT22;2470;49.868;8.660;2023-12-07T12:04:25;4.50;99.90
4910;DHT22;2470;49.868;8.660;2023-12-07T12:06:50;4.60;99.90
4910;DHT22;2470;49.868;8.660;2023-12-07T12:09:16;4.60;99.90
4910;DHT22;2470;49.868;8.660;2023-12-07T12:11:45;4.60;99.90
4910;DHT22;2470;49.868;8.660;2023-12-07T12:14:15;4.70;99.90
4910;DHT22;2470;49.868;8.660;2023-12-07T12:16:45;4.80;99.90
4910;DHT22;2470;49.868;8.660;2023-12-07T12:19:12;4.90;99.90
4910;DHT22;2470;49.868;8.660;2023-12-07T12:21:40;5.00;99.90
4910;DHT22;2470;49.868;8.660;2023-12-07T12:24:08;5.20;99.90
4910;DHT22;2470;49.868;8.660;2023-12-07T12:26:34;5.20;99.90
4910;DHT22;2470;49.868;8.660;2023-12-07T12:29:01;5.30;99.90
4910;DHT22;2470;49.868;8.660;2023-12-07T12:31:28;5.40;99.90
4910;DHT22;2470;49.868;8.660;2023-12-07T12:33:53;5.40;99.90
4910;DHT22;2470;49.868;8.660;2023-12-07T12:36:20;5.40;99.90
4910;DHT22;2470;49.868;8.660;2023-12-07T12:38:51;5.40;99.90
4910;DHT22;2470;49.868;8.660;2023-12-07T12:41:20;5.50;99.90
4910;DHT22;2470;49.868;8.660;2023-12-07T12:43:46;5.50;99.90
4910;DHT22;2470;49.868;8.660;2023-12-07T12:46:13;5.50;99.90
4910;DHT22;2470;49.868;8.660;2023-12-07T12:48:52;5.50;99.90
4910;DHT22;2470;49.868;8.660;2023-12-07T12:51:18;5.50;99.90
4910;DHT22;2470;49.868;8.660;2023-12-07T12:53:45;5.60;99.90
4910;DHT22;2470;49.868;8.660;2023-12-07T12:56:18;5.60;99.90
4910;DHT22;2470;49.868;8.660;2023-12-07T12:58:44;5.50;99.90
4910;DHT22;2470;49.868;8.660;2023-12-07T13:01:09;5.50;99.90
4910;DHT22;2470;49.868;8.660;2023-12-07T13:03:35;5.40;99.90
4910;DHT22;2470;49.868;8.660;2023-12-07T13:06:01;5.40;99.90
4910;DHT22;2470;49.868;8.660;2023-12-07T13:08:26;5.50;99.90
4910;DHT22;2470;49.868;8.660;2023-12-07T13:10:52;5.60;99.90
4910;DHT22;2470;49.868;8.660;2023-12-07T13:13:17;5.50;99.90
4910;DHT22;2470;49.868;8.660;2023-12-07T13:15:43;5.50;99.90
4910;DHT22;2470;49.868;8.660;2023-12-07T13:18:08;5.50;99.90
4910;DHT22;2470;49.868;8.660;2023-12-07T13:20:34;5.50;99.90
4910;DHT22;2470;49.868;8.660;2023-12-07T13:23:04;5.40;99.90
4910;DHT22;2470;49.868;8.660;2023-12-07T13:25:29;5.50;99.90
4910;DHT22;2470;49.868;8.660;2023-12-07T13:27:55;5.50;99.90
4910;DHT22;2470;49.868;8.660;2023-12-07T13:30:21;5.60;99.90
4910;DHT22;2470;49.868;8.660;2023-12-07T13:32:46;5.70;99.90
4910;DHT22;2470;49.868;8.660;2023-12-07T13:35:13;5.80;99.90
4910;DHT22;2470;49.868;8.660;2023-12-07T13:37:39;5.80;99.90
4910;DHT22;2470;49.868;8.660;2023-12-07T13:40:05;5.70;99.90
4910;DHT22;2470;49.868;8.660;2023-12-07T13:42:35;5.70;99.90
4910;DHT22;2470;49.868;8.660;2023-12-07T13:45:01;5.70;99.90
4910;DHT22;2470;49.868;8.660;2023-12-07T13:47:27;5.80;99.90
4910;DHT22;2470;49.868;8.660;2023-12-07T13:50:03;5.90;99.90
4910;DHT22;2470;49.868;8.660;2023-12-07T13:52:29;6.00;99.90
4910;DHT22;2470;49.868;8.660;2023-12-07T13:54:56;6.00;99.90
4910;DHT22;2470;49.868;8.660;2023-12-07T13:57:22;6.00;99.90
4910;DHT22;2470;49.868;8.660;2023-12-07T13:59:52;5.90;99.90
4910;DHT22;2470;49.868;8.660;2023-12-07T14:02:18;5.80;99.90
4910;DHT22;2470;49.868;8.660;2023-12-07T14:04:45;5.80;99.90
4910;DHT22;2470;49.868;8.660;2023-12-07T14:07:14;5.80;99.90
4910;DHT22;2470;49.868;8.660;2023-12-07T14:09:45;5.80;99.90
4910;DHT22;2470;49.868;8.660;2023-12-07T14:12:11;5.80;99.90
4910;DHT22;2470;49.868;8.660;2023-12-07T14:14:39;5.90;99.90
4910;DHT22;2470;49.868;8.660;2023-12-07T14:17:05;5.90;99.90
4910;DHT22;2470;49.868;8.660;2023-12-07T14:19:31;6.00;99.90
4910;DHT22;2470;49.868;8.660;2023-12-07T14:21:56;6.00;99.90
4910;DHT22;2470;49.868;8.660;2023-12-07T14:24:25;6.00;99.90
4910;DHT22;2470;49.868;8.660;2023-12-07T14:26:51;6.00;99.90
4910;DHT22;2470;49.868;8.660;2023-12-07T14:29:18;6.00;99.90
4910;DHT22;2470;49.868;8.660;2023-12-07T14:31:46;5.90;99.90
4910;DHT22;2470;49.868;8.660;2023-12-07T14:34:11;5.90;99.90
4910;DHT22;2470;49.868;8.660;2023-12-07T14:36:39;5.90;99.90
4910;DHT22;2470;49.868;8.660;2023-12-07T14:39:11;5.80;99.90
4910;DHT22;2470;49.868;8.660;2023-12-07T14:41:43;5.70;99.90
4910;DHT22;2470;49.868;8.660;2023-12-07T14:44:08;5.60;99.90
4910;DHT22;2470;49.868;8.660;2023-12-07T14:46:34;5.50;99.90
4910;DHT22;2470;49.868;8.660;2023-12-07T14:48:59;5.30;99.90
4910;DHT22;2470;49.868;8.660;2023-12-07T14:51:25;5.30;99.90
4910;DHT22;2470;49.868;8.660;2023-12-07T14:53:50;5.20;99.90
4910;DHT22;2470;49.868;8.660;2023-12-07T14:56:16;5.10;99.90
4910;DHT22;2470;49.868;8.660;2023-12-07T14:58:41;5.00;99.90
4910;DHT22;2470;49.868;8.660;2023-12-07T15:01:07;5.00;99.90
4910;DHT22;2470;49.868;8.660;2023-12-07T15:03:32;4.90;99.90
4910;DHT22;2470;49.868;8.660;2023-12-07T15:05:58;4.80;99.90
4910;DHT22;2470;49.868;8.660;2023-12-07T15:08:23;4.70;99.90
4910;DHT22;2470;49.868;8.660;2023-12-07T15:10:49;4.70;99.90
4910;DHT22;2470;49.868;8.660;2023-12-07T15:13:18;4.60;99.90
4910;DHT22;2470;49.868;8.660;2023-12-07T15:15:44;4.50;99.90
4910;DHT22;2470;49.868;8.660;2023-12-07T15:18:10;4.50;99.90
4910;DHT22;2470;49.868;8.660;2023-12-07T15:20:36;4.30;99.90
4910;DHT22;2470;49.868;8.660;2023-12-07T15:23:01;4.30;99.90
4910;DHT22;2470;49.868;8.660;2023-12-07T15:25:27;4.20;99.90
4910;DHT22;2470;49.868;8.660;2023-12-07T15:27:54;4.10;99.90
4910;DHT22;2470;49.868;8.660;2023-12-07T15:30:20;4.00;99.90
4910;DHT22;2470;49.868;8.660;2023-12-07T15:32:49;4.00;99.90
4910;DHT22;2470;49.868;8.660;2023-12-07T15:35:15;3.80;99.90
4910;DHT22;2470;49.868;8.660;2023-12-07T15:37:41;3.80;99.90
4910;DHT22;2470;49.868;8.660;2023-12-07T15:40:07;3.70;99.90
4910;DHT22;2470;49.868;8.660;2023-12-07T15:42:38;3.60;99.90
4910;DHT22;2470;49.868;8.660;2023-12-07T15:45:06;3.60;99.90
4910;DHT22;2470;49.868;8.660;2023-12-07T15:47:31;3.50;99.90
4910;DHT22;2470;49.868;8.660;2023-12-07T15:49:57;3.50;99.90
4910;DHT22;2470;49.868;8.660;2023-12-07T15:52:23;3.50;99.90
4910;DHT22;2470;49.868;8.660;2023-12-07T15:54:49;3.40;99.90
4910;DHT22;2470;49.868;8.660;2023-12-07T15:57:14;3.40;99.90
4910;DHT22;2470;49.868;8.660;2023-12-07T15:59:41;3.40;99.90
4910;DHT22;2470;49.868;8.660;2023-12-07T16:02:07;3.40;99.90
4910;DHT22;2470;49.868;8.660;2023-12-07T16:04:32;3.40;99.90
4910;DHT22;2470;49.868;8.660;2023-12-07T16:06:58;3.40;99.90
4910;DHT22;2470;49.868;8.660;2023-12-07T16:09:24;3.40;99.90
4910;DHT22;2470;49.868;8.660;2023-12-07T16:11:50;3.40;99.90